< < Back
Terminal Aerodrome Forecast


Current Version              Previous Versions:   1  2  3  4  5  6  7  8  9  

Terminal Aerodrome Forecast

962
FTUS44 KBMX 262300
TAFBHM
TAF
KBHM 262329Z 2700/2724 07006KT P6SM FEW070
     FM270200 00000KT P6SM SKC
     FM271500 03005KT P6SM FEW050=



Latest METAR

158
SAUS70 KWBC 272000 RRF
MTRBHM
METAR KBHM 271953Z VRB03KT 10SM FEW070 FEW250 33/13 A3007 RMK AO2 SLP173
T03280128


USA.gov is the U.S. government's official web portal to all federal, state and local government web resources and services.